Terminal Aerodrome Forecast
Issued by NWS Atlanta, GA

Home | Current Version | Previous Version | Text Only | Print | Product List | Glossary On
Versions: 1 2 3 4 5 6 7 8 9 10 11 12 13 14 15 16 17 18 19 20 21 22
000
FTUS42 KFFC 030520
TAFCSG
TAF
KCSG 030520Z 0306/0406 VRB03KT P6SM SCT070 BKN250
      TEMPO 0306/0308 BKN070
     FM030900 VRB03KT 6SM BR SCT250
     FM031400 VRB03KT P6SM SCT020
     FM031600 VRB05KT P6SM VCSH SCT030 BKN050 PROB30 0317/0323
      VRB15G25KT 5SM TSRA BKN045CB
     FM040000 09005KT P6SM SCT050 SCT100=

USA.gov is the U.S. government's official web portal to all federal, state and local government web resources and services.